Wetterdaten: Woche 07.01.19 - 13.01.19 (KW2)
Datum Zeit Temp. A. Feuchte A. Luftdruck Regen Wind Richtung Taupunkt Windchill Windben
07.01.2019 00:00 1,1 C 68 % 1027,6 hPa 0,0 l/m 5,1 km/h N -4,2 C 1,1 C 20,1 km/h
07.01.2019 01:00 1,1 C 67 % 1027,8 hPa 0,0 l/m 4,0 km/h N -4,4 C 1,1 C 14,9 km/h
07.01.2019 02:00 0,9 C 68 % 1028,1 hPa 0,0 l/m 2,7 km/h N -4,3 C 0,9 C 16,1 km/h
07.01.2019 03:00 0,8 C 71 % 1028,2 hPa 0,0 l/m 1,8 km/h N -4,0 C 0,8 C 10,9 km/h
07.01.2019 04:00 0,7 C 74 % 1028,1 hPa 0,0 l/m 1,1 km/h N -3,3 C 0,7 C 10,1 km/h
07.01.2019 05:00 0,7 C 76 % 1028,2 hPa 0,0 l/m 0,9 km/h N -3,0 C 0,7 C 8,9 km/h
07.01.2019 06:00 0,2 C 76 % 1028,5 hPa 0,0 l/m 0,8 km/h N -3,5 C 0,2 C 8,9 km/h
07.01.2019 07:00 -0,3 C 79 % 1028,9 hPa 0,0 l/m 0,0 km/h N -3,5 C -0,3 C 2,0 km/h
07.01.2019 08:00 0,4 C 79 % 1029,3 hPa 0,0 l/m 0,3 km/h N -2,8 C 0,4 C 5,2 km/h
07.01.2019 09:00 0,3 C 79 % 1029,6 hPa 0,0 l/m 0,1 km/h N -2,9 C 0,3 C 3,2 km/h
07.01.2019 10:00 -0,3 C 78 % 1030,1 hPa 0,0 l/m 0,0 km/h N -3,6 C -0,3 C 1,6 km/h
07.01.2019 11:00 -0,4 C 78 % 1030,1 hPa 0,0 l/m 0,0 km/h N -3,8 C -0,4 C 0,0 km/h
07.01.2019 12:00 -0,5 C 77 % 1029,6 hPa 0,0 l/m 0,0 km/h N -4,0 C -0,5 C 0,0 km/h
07.01.2019 13:00 -0,7 C 77 % 1029,2 hPa 0,0 l/m 0,0 km/h N -4,2 C -0,7 C 0,0 km/h
07.01.2019 14:00 -0,9 C 78 % 1028,9 hPa 0,0 l/m 0,0 km/h N -4,3 C -0,9 C 0,0 km/h
07.01.2019 15:00 -0,8 C 79 % 1028,8 hPa 0,0 l/m 0,0 km/h N -4,1 C -0,8 C 0,0 km/h
07.01.2019 16:00 -0,9 C 79 % 1028,8 hPa 0,0 l/m 0,0 km/h N -4,1 C -0,9 C 0,8 km/h
07.01.2019 17:00 -1,1 C 80 % 1028,6 hPa 0,0 l/m 0,0 km/h N -4,2 C -1,1 C 0,0 km/h
07.01.2019 18:00 -1,3 C 82 % 1028,5 hPa 0,0 l/m 0,0 km/h N -4,0 C -1,3 C 0,0 km/h
07.01.2019 19:00 -1,7 C 83 % 1028,3 hPa 0,0 l/m 0,0 km/h N -4,2 C -1,7 C 0,0 km/h
07.01.2019 20:00 -1,8 C 83 % 1027,6 hPa 0,0 l/m 0,0 km/h N -4,3 C -1,8 C 0,8 km/h
07.01.2019 21:00 -1,8 C 83 % 1026,9 hPa 0,0 l/m 0,0 km/h N -4,3 C -1,8 C 0,0 km/h
07.01.2019 22:00 -1,5 C 83 % 1026,3 hPa 0,0 l/m 0,0 km/h N -4,1 C -1,5 C 0,0 km/h
07.01.2019 23:00 -1,4 C 82 % 1025,4 hPa 0,0 l/m 0,0 km/h N -4,1 C -1,4 C 0,0 km/h
08.01.2019 00:00 -1,3 C 82 % 1024,3 hPa 0,0 l/m 0,0 km/h N -4,0 C -1,3 C 0,0 km/h
08.01.2019 01:00 0,8 C 82 % 1023,0 hPa 0,0 l/m 4,0 km/h N -2,0 C -0,0 C 21,7 km/h
08.01.2019 02:00 3,3 C 81 % 1021,8 hPa 0,0 l/m 8,1 km/h N 0,3 C 1,8 C 26,5 km/h
08.01.2019 03:00 3,3 C 78 % 1020,8 hPa 0,0 l/m 7,3 km/h N -0,2 C 1,9 C 29,0 km/h
08.01.2019 04:00 3,2 C 74 % 1019,6 hPa 0,0 l/m 3,2 km/h N -1,0 C 3,2 C 24,1 km/h
08.01.2019 05:00 3,3 C 73 % 1018,2 hPa 0,0 l/m 2,4 km/h N -1,1 C 3,3 C 22,5 km/h
08.01.2019 06:00 2,8 C 74 % 1016,9 hPa 0,0 l/m 0,8 km/h N -1,4 C 2,8 C 8,1 km/h
08.01.2019 07:00 2,2 C 81 % 1015,3 hPa 0,8 l/m 0,0 km/h N -0,8 C 2,2 C 8,9 km/h
08.01.2019 08:00 1,2 C 82 % 1014,2 hPa 1,3 l/m 0,0 km/h N -1,6 C 1,2 C 2,7 km/h
08.01.2019 09:00 1,3 C 82 % 1013,0 hPa 0,8 l/m 0,1 km/h N -1,4 C 1,3 C 4,0 km/h
08.01.2019 10:00 1,9 C 82 % 1012,3 hPa 2,3 l/m 2,3 km/h N -0,9 C 1,9 C 16,5 km/h
08.01.2019 11:00 3,5 C 82 % 1011,0 hPa 2,1 l/m 7,4 km/h N 0,7 C 2,5 C 24,5 km/h
08.01.2019 12:00 4,4 C 80 % 1010,2 hPa 1,3 l/m 10,6 km/h N 1,3 C 1,1 C 32,6 km/h
08.01.2019 13:00 5,1 C 77 % 1009,1 hPa 0,3 l/m 7,2 km/h N 1,4 C 4,2 C 29,0 km/h
08.01.2019 14:00 5,4 C 73 % 1008,4 hPa 0,0 l/m 9,6 km/h N 1,0 C 2,8 C 32,6 km/h
08.01.2019 15:00 5,3 C 74 % 1007,4 hPa 0,0 l/m 11,4 km/h N 1,0 C 1,5 C 37,0 km/h
08.01.2019 16:00 5,2 C 74 % 1006,5 hPa 0,0 l/m 8,7 km/h N 0,9 C 3,3 C 32,2 km/h
08.01.2019 17:00 5,1 C 74 % 1005,8 hPa 0,0 l/m 8,0 km/h N 0,9 C 3,7 C 34,2 km/h
08.01.2019 18:00 5,3 C 75 % 1004,8 hPa 0,0 l/m 12,6 km/h N 1,1 C 0,8 C 39,0 km/h
08.01.2019 19:00 5,3 C 74 % 1004,2 hPa 0,0 l/m 15,9 km/h N 1,0 C -1,0 C 47,5 km/h
08.01.2019 20:00 5,3 C 73 % 1003,7 hPa 0,0 l/m 17,9 km/h N 0,8 C -1,9 C 46,7 km/h
08.01.2019 21:00 5,2 C 73 % 1003,0 hPa 0,0 l/m 17,9 km/h N 0,7 C -2,0 C 50,3 km/h
08.01.2019 22:00 5,1 C 73 % 1003,3 hPa 0,0 l/m 15,0 km/h N 0,7 C -0,7 C 46,3 km/h
08.01.2019 23:00 5,0 C 74 % 1003,1 hPa 0,0 l/m 11,1 km/h N 0,8 C 1,5 C 37,8 km/h
09.01.2019 00:00 5,1 C 73 % 1002,5 hPa 0,0 l/m 14,6 km/h N 0,6 C -0,6 C 44,3 km/h
09.01.2019 01:00 4,9 C 73 % 1002,3 hPa 0,0 l/m 13,8 km/h N 0,4 C -0,2 C 43,5 km/h
09.01.2019 02:00 4,5 C 74 % 1002,5 hPa 0,0 l/m 12,0 km/h N 0,3 C 0,3 C 39,4 km/h
09.01.2019 03:00 4,3 C 75 % 1002,5 hPa 0,0 l/m 8,3 km/h N 0,2 C 2,7 C 33,4 km/h
09.01.2019 04:00 3,9 C 76 % 1002,4 hPa 0,0 l/m 4,1 km/h N 0,1 C 3,9 C 21,3 km/h
09.01.2019 05:00 4,0 C 76 % 1002,1 hPa 0,0 l/m 5,8 km/h N 0,1 C 4,0 C 24,1 km/h
09.01.2019 06:00 3,9 C 76 % 1002,1 hPa 0,3 l/m 8,0 km/h N 0,0 C 2,3 C 29,0 km/h
09.01.2019 07:00 2,8 C 80 % 1002,6 hPa 0,0 l/m 6,1 km/h N -0,3 C 2,3 C 21,3 km/h
09.01.2019 08:00 2,9 C 79 % 1003,0 hPa 0,0 l/m 4,1 km/h N -0,4 C 2,9 C 18,9 km/h
09.01.2019 09:00 3,2 C 78 % 1003,2 hPa 0,0 l/m 5,1 km/h N -0,3 C 3,2 C 18,5 km/h
09.01.2019 10:00 3,7 C 76 % 1003,3 hPa 0,0 l/m 8,2 km/h N -0,1 C 2,1 C 23,7 km/h
09.01.2019 11:00 3,1 C 80 % 1003,5 hPa 0,3 l/m 5,8 km/h N -0,1 C 3,1 C 21,3 km/h
09.01.2019 12:00 2,8 C 82 % 1003,4 hPa 0,0 l/m 5,9 km/h N -0,1 C 2,6 C 22,9 km/h
09.01.2019 13:00 2,4 C 82 % 1003,5 hPa 0,5 l/m 6,5 km/h N -0,3 C 2,1 C 24,5 km/h
09.01.2019 14:00 2,1 C 82 % 1003,8 hPa 0,8 l/m 4,8 km/h N -0,6 C 1,9 C 18,9 km/h
09.01.2019 15:00 1,8 C 83 % 1004,3 hPa 0,5 l/m 4,0 km/h N -0,8 C 1,8 C 16,9 km/h
09.01.2019 16:00 1,5 C 82 % 1004,6 hPa 0,8 l/m 5,5 km/h N -1,2 C 1,5 C 19,3 km/h
09.01.2019 17:00 1,5 C 82 % 1004,9 hPa 0,0 l/m 6,9 km/h N -1,2 C 0,6 C 21,3 km/h
09.01.2019 18:00 1,6 C 83 % 1005,4 hPa 0,3 l/m 6,4 km/h N -1,0 C 1,5 C 22,5 km/h
09.01.2019 19:00 1,5 C 83 % 1005,8 hPa 0,0 l/m 4,7 km/h N -1,1 C 1,5 C 18,1 km/h
09.01.2019 20:00 1,3 C 83 % 1006,4 hPa 0,3 l/m 6,4 km/h N -1,3 C 0,7 C 20,9 km/h
09.01.2019 21:00 1,3 C 83 % 1006,8 hPa 0,0 l/m 4,7 km/h N -1,3 C 1,2 C 15,7 km/h
09.01.2019 22:00 1,1 C 83 % 1007,3 hPa 0,5 l/m 5,0 km/h N -1,5 C 1,0 C 19,3 km/h
09.01.2019 23:00 1,2 C 82 % 1007,8 hPa 0,0 l/m 4,3 km/h N -1,5 C 1,2 C 18,1 km/h
10.01.2019 00:00 1,3 C 83 % 1008,3 hPa 0,0 l/m 3,9 km/h N -1,3 C 1,3 C 16,5 km/h
10.01.2019 01:00 1,1 C 83 % 1008,6 hPa 0,3 l/m 2,5 km/h N -1,5 C 1,1 C 13,7 km/h
10.01.2019 02:00 1,0 C 82 % 1009,4 hPa 0,0 l/m 0,4 km/h N -1,8 C 1,0 C 4,0 km/h
10.01.2019 03:00 0,9 C 82 % 1009,9 hPa 0,3 l/m 0,0 km/h N -1,8 C 0,9 C 0,0 km/h
10.01.2019 04:00 0,8 C 82 % 1010,3 hPa 0,3 l/m 0,5 km/h N -1,9 C 0,8 C 4,0 km/h
10.01.2019 05:00 0,8 C 82 % 1010,7 hPa 0,0 l/m 0,3 km/h N -1,9 C 0,8 C 4,0 km/h
10.01.2019 06:00 0,7 C 82 % 1011,5 hPa 0,3 l/m 0,5 km/h N -2,0 C 0,7 C 5,2 km/h
10.01.2019 07:00 0,8 C 82 % 1012,4 hPa 0,0 l/m 2,0 km/h N -1,9 C 0,8 C 9,3 km/h
10.01.2019 08:00 0,8 C 82 % 1013,5 hPa 0,0 l/m 1,6 km/h N -1,9 C 0,8 C 8,0 km/h
10.01.2019 09:00 1,2 C 82 % 1014,3 hPa 0,5 l/m 2,6 km/h N -1,5 C 1,2 C 10,1 km/h
10.01.2019 10:00 1,4 C 82 % 1014,9 hPa 0,3 l/m 3,9 km/h N -1,4 C 1,4 C 12,5 km/h
10.01.2019 11:00 1,5 C 82 % 1015,1 hPa 0,0 l/m 5,0 km/h N -1,2 C 1,5 C 13,3 km/h
10.01.2019 12:00 1,7 C 82 % 1015,2 hPa 0,0 l/m 5,4 km/h N -1,1 C 1,7 C 14,5 km/h
10.01.2019 13:00 1,4 C 83 % 1015,2 hPa 0,0 l/m 5,8 km/h N -1,2 C 1,3 C 15,7 km/h
10.01.2019 14:00 1,3 C 83 % 1015,6 hPa 0,0 l/m 6,0 km/h N -1,3 C 1,0 C 16,9 km/h
10.01.2019 15:00 1,3 C 83 % 1016,1 hPa 0,0 l/m 5,6 km/h N -1,3 C 1,3 C 15,3 km/h
10.01.2019 16:00 1,0 C 85 % 1016,9 hPa 0,0 l/m 4,5 km/h N -1,3 C 1,0 C 15,7 km/h
10.01.2019 17:00 0,8 C 83 % 1017,2 hPa 0,0 l/m 3,0 km/h N -1,7 C 0,8 C 12,9 km/h
10.01.2019 18:00 0,9 C 83 % 1017,6 hPa 0,0 l/m 5,3 km/h N -1,6 C 0,9 C 16,9 km/h
10.01.2019 19:00 1,1 C 82 % 1018,4 hPa 0,0 l/m 6,3 km/h N -1,7 C 1,1 C 17,3 km/h
10.01.2019 20:00 0,8 C 81 % 1018,8 hPa 0,0 l/m 5,2 km/h N -2,1 C 0,8 C 16,9 km/h
10.01.2019 21:00 0,4 C 80 % 1019,3 hPa 0,0 l/m 6,3 km/h N -2,6 C 0,2 C 18,5 km/h
10.01.2019 22:00 0,2 C 81 % 1019,5 hPa 0,0 l/m 7,6 km/h N -2,7 C -1,0 C 20,1 km/h
10.01.2019 23:00 0,1 C 82 % 1019,7 hPa 0,0 l/m 9,0 km/h N -2,7 C -2,5 C 21,7 km/h
11.01.2019 00:00 -0,4 C 81 % 1019,9 hPa 0,0 l/m 7,6 km/h N -3,2 C -1,8 C 22,1 km/h
11.01.2019 01:00 -0,3 C 79 % 1020,2 hPa 0,0 l/m 8,2 km/h N -3,5 C -2,2 C 22,9 km/h
11.01.2019 02:00 -0,6 C 78 % 1020,8 hPa 0,0 l/m 7,6 km/h N -3,9 C -1,8 C 21,7 km/h
11.01.2019 03:00 -0,7 C 78 % 1021,2 hPa 0,0 l/m 5,9 km/h N -4,1 C -0,9 C 18,9 km/h
11.01.2019 04:00 -1,0 C 79 % 1021,2 hPa 0,0 l/m 6,5 km/h N -4,2 C -1,2 C 21,3 km/h
11.01.2019 05:00 -1,1 C 79 % 1021,3 hPa 0,0 l/m 6,4 km/h N -4,3 C -1,7 C 20,9 km/h
11.01.2019 06:00 -1,2 C 79 % 1021,5 hPa 0,0 l/m 5,9 km/h N -4,3 C -1,3 C 19,7 km/h
11.01.2019 07:00 -1,5 C 79 % 1021,8 hPa 0,0 l/m 6,5 km/h N -4,8 C -1,7 C 22,1 km/h
11.01.2019 08:00 -1,9 C 78 % 1022,3 hPa 0,0 l/m 5,2 km/h N -5,2 C -1,9 C 17,7 km/h
11.01.2019 09:00 -2,0 C 77 % 1022,5 hPa 0,0 l/m 6,1 km/h N -5,5 C -2,6 C 22,1 km/h
11.01.2019 10:00 -1,4 C 74 % 1022,7 hPa 0,0 l/m 8,0 km/h N -5,5 C -3,2 C 26,1 km/h
11.01.2019 11:00 -1,0 C 72 % 1022,7 hPa 0,0 l/m 7,1 km/h N -5,4 C -1,7 C 20,9 km/h
11.01.2019 12:00 -0,7 C 71 % 1022,0 hPa 0,0 l/m 7,2 km/h N -5,4 C -1,6 C 21,7 km/h
11.01.2019 13:00 -1,0 C 71 % 1021,5 hPa 0,0 l/m 8,6 km/h N -5,6 C -3,1 C 28,5 km/h
11.01.2019 14:00 -0,7 C 70 % 1021,0 hPa 0,0 l/m 7,8 km/h N -5,5 C -2,2 C 29,0 km/h
11.01.2019 15:00 -0,9 C 69 % 1020,7 hPa 0,0 l/m 8,1 km/h N -5,8 C -3,0 C 27,8 km/h
11.01.2019 16:00 -1,0 C 66 % 1020,1 hPa 0,0 l/m 9,4 km/h N -6,5 C -4,0 C 34,2 km/h
11.01.2019 17:00 -0,8 C 66 % 1019,6 hPa 0,0 l/m 10,5 km/h N -6,3 C -4,6 C 33,4 km/h
11.01.2019 18:00 -0,3 C 66 % 1019,0 hPa 0,0 l/m 7,7 km/h N -5,9 C -1,8 C 30,6 km/h
11.01.2019 19:00 0,1 C 70 % 1018,6 hPa 0,0 l/m 9,8 km/h N -4,7 C -3,2 C 33,8 km/h
11.01.2019 20:00 0,2 C 76 % 1017,9 hPa 0,0 l/m 10,6 km/h N -3,5 C -3,7 C 35,0 km/h
11.01.2019 21:00 0,0 C 80 % 1017,3 hPa 0,0 l/m 11,6 km/h N -3,0 C -4,6 C 38,6 km/h
11.01.2019 22:00 0,1 C 82 % 1016,4 hPa 0,0 l/m 13,3 km/h N -2,6 C -5,8 C 44,7 km/h
11.01.2019 23:00 0,2 C 82 % 1016,1 hPa 0,0 l/m 14,5 km/h N -2,5 C -6,5 C 47,9 km/h
12.01.2019 00:00 0,2 C 83 % 1016,2 hPa 0,0 l/m 13,4 km/h N -2,3 C -5,7 C 41,0 km/h
12.01.2019 01:00 0,8 C 82 % 1016,1 hPa 0,0 l/m 13,2 km/h N -1,9 C -4,8 C 35,8 km/h
12.01.2019 02:00 1,5 C 78 % 1016,3 hPa 0,0 l/m 10,6 km/h N -1,9 C -2,2 C 33,4 km/h
12.01.2019 03:00 1,9 C 76 % 1016,1 hPa 0,0 l/m 10,2 km/h N -1,8 C -1,4 C 35,4 km/h
12.01.2019 04:00 2,1 C 76 % 1015,9 hPa 0,0 l/m 9,1 km/h N -1,7 C -0,4 C 34,2 km/h
12.01.2019 05:00 2,3 C 77 % 1015,7 hPa 0,0 l/m 10,1 km/h N -1,3 C -0,8 C 34,6 km/h
12.01.2019 06:00 2,5 C 77 % 1015,9 hPa 0,0 l/m 11,5 km/h N -1,1 C -1,8 C 32,2 km/h
12.01.2019 07:00 2,7 C 77 % 1016,1 hPa 0,0 l/m 10,7 km/h N -0,9 C -0,9 C 31,0 km/h
12.01.2019 08:00 3,0 C 77 % 1016,3 hPa 0,0 l/m 11,3 km/h N -0,7 C -1,1 C 30,6 km/h
12.01.2019 09:00 3,4 C 76 % 1016,8 hPa 0,0 l/m 10,6 km/h N -0,4 C -0,0 C 31,4 km/h
12.01.2019 10:00 3,8 C 76 % 1016,8 hPa 0,0 l/m 11,4 km/h N -0,1 C -0,2 C 35,8 km/h
12.01.2019 11:00 4,1 C 76 % 1016,5 hPa 0,0 l/m 11,6 km/h N 0,2 C 0,1 C 33,8 km/h
12.01.2019 12:00 4,7 C 74 % 1016,2 hPa 0,0 l/m 9,9 km/h N 0,4 C 1,8 C 28,6 km/h
12.01.2019 13:00 4,8 C 73 % 1015,5 hPa 0,0 l/m 11,7 km/h N 0,4 C 0,7 C 31,4 km/h
12.01.2019 14:00 4,7 C 75 % 1015,2 hPa 0,0 l/m 9,8 km/h N 0,6 C 1,9 C 30,2 km/h
12.01.2019 15:00 4,5 C 75 % 1014,9 hPa 0,0 l/m 10,1 km/h N 0,5 C 1,7 C 27,0 km/h
12.01.2019 16:00 4,2 C 77 % 1014,8 hPa 0,0 l/m 12,0 km/h N 0,4 C -0,2 C 34,2 km/h
12.01.2019 17:00 4,3 C 77 % 1014,6 hPa 0,0 l/m 11,2 km/h N 0,7 C 0,5 C 36,2 km/h
12.01.2019 18:00 4,5 C 75 % 1014,1 hPa 0,3 l/m 12,5 km/h N 0,5 C -0,0 C 35,4 km/h
12.01.2019 19:00 4,7 C 74 % 1013,5 hPa 0,0 l/m 10,9 km/h N 0,4 C 1,2 C 32,2 km/h
12.01.2019 20:00 5,1 C 71 % 1012,4 hPa 0,0 l/m 12,3 km/h N 0,3 C 0,8 C 39,4 km/h
12.01.2019 21:00 5,5 C 69 % 1011,3 hPa 0,0 l/m 11,7 km/h N 0,2 C 1,7 C 37,8 km/h
12.01.2019 22:00 5,0 C 75 % 1010,9 hPa 0,3 l/m 8,4 km/h N 0,8 C 3,3 C 36,2 km/h
12.01.2019 23:00 4,4 C 79 % 1010,1 hPa 0,3 l/m 9,6 km/h N 1,0 C 1,8 C 33,8 km/h
13.01.2019 00:00 4,9 C 76 % 1009,2 hPa 0,0 l/m 10,6 km/h N 0,9 C 1,5 C 35,0 km/h
13.01.2019 01:00 4,2 C 79 % 1008,8 hPa 0,5 l/m 9,0 km/h N 1,0 C 2,0 C 35,8 km/h
13.01.2019 02:00 4,6 C 77 % 1008,6 hPa 0,0 l/m 8,5 km/h N 0,9 C 2,7 C 37,4 km/h
13.01.2019 03:00 4,5 C 77 % 1008,4 hPa 0,0 l/m 7,3 km/h N 0,7 C 3,7 C 28,2 km/h
13.01.2019 04:00 4,1 C 79 % 1008,4 hPa 0,3 l/m 7,0 km/h N 0,7 C 3,5 C 26,1 km/h
13.01.2019 05:00 3,7 C 80 % 1008,2 hPa 0,3 l/m 5,3 km/h N 0,6 C 3,7 C 25,7 km/h
13.01.2019 06:00 4,1 C 77 % 1007,9 hPa 0,0 l/m 8,4 km/h N 0,5 C 2,3 C 31,4 km/h
13.01.2019 07:00 4,0 C 77 % 1007,7 hPa 0,0 l/m 8,4 km/h N 0,4 C 2,3 C 29,0 km/h
13.01.2019 08:00 4,1 C 77 % 1007,9 hPa 0,0 l/m 8,7 km/h N 0,3 C 2,0 C 25,8 km/h
13.01.2019 09:00 4,8 C 76 % 1007,4 hPa 0,0 l/m 8,0 km/h N 0,8 C 3,4 C 30,2 km/h
13.01.2019 10:00 5,1 C 75 % 1007,8 hPa 0,0 l/m 11,2 km/h N 1,0 C 1,6 C 33,4 km/h
13.01.2019 11:00 5,7 C 73 % 1006,8 hPa 0,0 l/m 13,5 km/h N 1,2 C 0,7 C 35,4 km/h
13.01.2019 12:00 6,0 C 74 % 1005,7 hPa 0,0 l/m 9,5 km/h N 1,7 C 3,5 C 30,2 km/h
13.01.2019 13:00 6,2 C 74 % 1004,6 hPa 0,0 l/m 8,8 km/h N 1,9 C 4,3 C 27,8 km/h
13.01.2019 14:00 6,4 C 75 % 1003,3 hPa 0,0 l/m 5,8 km/h N 2,3 C 6,2 C 27,8 km/h
13.01.2019 15:00 6,8 C 73 % 1002,1 hPa 0,0 l/m 6,0 km/h N 2,3 C 6,6 C 25,8 km/h
13.01.2019 16:00 6,6 C 74 % 1001,0 hPa 0,0 l/m 1,7 km/h N 2,3 C 6,6 C 14,1 km/h
13.01.2019 17:00 6,8 C 73 % 999,9 hPa 0,0 l/m 3,6 km/h N 2,2 C 6,8 C 20,5 km/h
13.01.2019 18:00 7,0 C 72 % 998,7 hPa 0,0 l/m 4,8 km/h N 2,3 C 7,0 C 21,7 km/h
13.01.2019 19:00 5,8 C 79 % 997,3 hPa 2,3 l/m 7,9 km/h N 2,4 C 4,4 C 30,6 km/h
13.01.2019 20:00 5,3 C 81 % 995,9 hPa 1,3 l/m 10,6 km/h N 2,3 C 2,1 C 35,4 km/h
13.01.2019 21:00 5,9 C 80 % 994,8 hPa 0,0 l/m 13,6 km/h N 2,6 C 0,9 C 41,8 km/h
13.01.2019 22:00 6,6 C 77 % 993,5 hPa 0,0 l/m 12,7 km/h N 2,8 C 2,2 C 42,7 km/h
13.01.2019 23:00 6,9 C 76 % 992,7 hPa 0,3 l/m 14,1 km/h N 2,9 C 1,8 C 43,4 km/h
Min-Datum _ 11.01.19 07.01.19 13.01.19 - 07.01.19 - 11.01.19 11.01.19 07.01.19
_ Min-Zeit 09:30 01:30 23:45 - 07:00 - 16:15 23:30 07:15
Minimum _ -2,1 C 66 % 992,4 hPa - 0,0 km/h - -6,5 C -7,3 C 0,0 km/h
Max-Datum _ 13.01.19 10.01.19 07.01.19 08.01.19 08.01.19 - 13.01.19 13.01.19 11.01.19
_ Max-Zeit 18:30 16:30 10:30 10:15 20:45 - 23:45 18:30 23:00
Maximum _ 7,2 C 89 % 1030,2 hPa 2,3 l/m 19,6 km/h
N
- 3,0 C 7,2 C 54,7 km/h
N
Durchschnitt _ 2,2 C 78 % 1013,9 hPa #20,5 l/m 6,7 km/h N -1,4 C 0,6 C 22,9 km/h